Ahar, Iran

12:03 PM IRST on December 21, 2014 (GMT +0330)
Tabriz International | Change Station
CLOSE
Current Station
Airport
Location: Tabriz,
Elevation: 4459 ft
Nearby Weather Stations

Elev 4459 ft 38.13 °N, 46.24 °E | Updated 33 minutes ago

Scattered Clouds
Scattered Clouds
41 °F
Feels Like 38 °F
N
5
Wind Variable Wind from East

Today
High -- | Low -- °F
--% Chance of Precip.
Yesterday
High -- | Low -- °F
Precip. -- in
7:35 AM 5:04 PM
Waning Crescent, 1% visible
Pressure 30.12 in
Visibility 3.7 miles
Clouds Few 3000 ft
Scattered Clouds 20000 ft
Windchill 38 °F
Dew Point 30 °F
Humidity 65%
Rainfall 0.00 in
Snow Depth Not available.
UV 2 out of 12
Pollen Not available.
Air Quality Not available.
Flu Activity Not available.
METAR OITT 210800Z 09004KT 6000 FEW030TCU SCT200 05/M01 Q1020 A3012

More Conditions Fewer Conditions

Pressure 30.12 in
Visibility 3.7 miles
Clouds Few 3000 ft
Scattered Clouds 20000 ft
Windchill 38 °F
Dew Point 30 °F
Humidity 65%
Rainfall 0.00 in
Snow Depth Not available.
UV 2 out of 12
Pollen Not available.
Air Quality Not available.
Flu Activity Not available.
METAR OITT 210800Z 09004KT 6000 FEW030TCU SCT200 05/M01 Q1020 A3012

More Conditions Fewer Conditions

10-Day Weather Forecast

Almanac

Astronomy

Dec. 21, 2014 Rise Set
Actual Time
Civil Twilight
Nautical Twilight
Astronomical Twilight
Moon
Length of Visible Light
Length of Day
Tomorrow will be .
, % of the Moon is Illuminated

Today's Extremes

Country Highs Country Lows

Community

WunderPhotos

Upload Photos

1,779,362 photos uploaded!

WunderBlogs® & News

Nearby

Air Quality

  Air Quality AQ Index Pollutant
Not available.

Snow Depth

Station Depth Elevation

Earthquake Activity

City Distance Mag. Time & Date
Minimum magnitude displayed is 2.5.

Coastal Water Temperatures

Place Temperature

Nearby Weather Stations